Time;durP1;ratioP1;P1;durP2;ratioP2;P2;SDS_P1;SDS_P2;PMS_P1;PMS_P2;Temp;Humidity;BMP_temperature;BMP_pressure;BME280_temperature;BME280_humidity;BME280_pressure;Samples;Min_cycle;Max_cycle;Signal;HPM_P1;HPM_P2
2021/11/26 00:05:52;;;;;;;4.20;3.90;;;12.80;95.70;;;;;;6202925;23;20816;-69
2021/11/26 00:12:28;;;;;;;5.57;4.33;;;12.50;98.30;;;;;;6209934;23;20428;-73
2021/11/26 00:15:20;;;;;;;3.97;3.67;;;12.40;99.60;;;;;;6199464;23;20497;-72
2021/11/26 00:18:04;;;;;;;3.77;3.40;;;12.30;99.30;;;;;;6206038;23;20428;-68
2021/11/26 00:20:39;;;;;;;4.83;3.70;;;12.20;99.60;;;;;;6212747;23;20401;-66
2021/11/26 00:23:10;;;;;;;3.93;3.30;;;12.20;98.70;;;;;;6208764;23;20931;-68
2021/11/26 00:25:41;;;;;;;4.60;4.20;;;12.10;99.90;;;;;;6206586;23;20459;-66
2021/11/26 00:28:16;;;;;;;4.70;4.30;;;12.00;99.90;;;;;;6207264;23;20433;-69
2021/11/26 00:30:48;;;;;;;4.17;3.77;;;11.90;99.90;;;;;;6206812;23;20451;-69
2021/11/26 00:33:19;;;;;;;4.90;4.50;;;11.70;99.90;;;;;;6208850;23;20432;-68
2021/11/26 00:35:52;;;;;;;4.63;4.23;;;11.60;99.90;;;;;;6211298;23;20420;-69
2021/11/26 00:38:24;;;;;;;10.07;4.67;;;11.50;99.90;;;;;;6210164;23;20507;-70
2021/11/26 00:41:00;;;;;;;4.63;4.23;;;11.50;99.90;;;;;;6211937;23;20489;-72
2021/11/26 00:43:45;;;;;;;4.87;4.47;;;11.50;99.90;;;;;;6209298;23;20452;-73
2021/11/26 00:46:22;;;;;;;5.00;4.60;;;11.60;99.90;;;;;;6211818;23;20480;-72
2021/11/26 00:49:18;;;;;;;5.73;4.80;;;11.60;99.90;;;;;;6201525;23;20420;-71
2021/11/26 00:52:23;;;;;;;5.00;4.60;;;11.60;99.90;;;;;;6209715;23;20520;-75
2021/11/26 00:55:10;;;;;;;5.10;4.70;;;11.50;99.90;;;;;;6189587;23;20551;-72
2021/11/26 00:58:09;;;;;;;4.90;4.50;;;11.50;99.90;;;;;;6208076;23;20444;-73
2021/11/26 01:00:58;;;;;;;4.47;4.07;;;11.50;99.90;;;;;;6206927;23;20511;-72
2021/11/26 01:03:31;;;;;;;4.20;3.80;;;11.40;99.90;;;;;;6208702;23;20483;-65
2021/11/26 01:06:04;;;;;;;4.30;3.70;;;11.40;99.90;;;;;;6203365;23;20424;-72
2021/11/26 01:08:37;;;;;;;4.60;4.20;;;11.40;99.90;;;;;;6208640;23;20470;-68
2021/11/26 01:11:08;;;;;;;5.43;4.47;;;11.40;99.90;;;;;;6207308;23;20451;-71
2021/11/26 01:13:41;;;;;;;5.47;4.97;;;11.40;99.90;;;;;;6209379;23;20413;-75
2021/11/26 01:16:20;;;;;;;5.27;4.77;;;11.40;99.90;;;;;;6203762;23;20804;-77
2021/11/26 01:19:00;;;;;;;5.13;4.63;;;11.50;99.90;;;;;;6205673;23;20421;-70
2021/11/26 01:21:31;;;;;;;5.40;5.00;;;11.30;99.90;;;;;;6205493;23;20761;-70
2021/11/26 01:24:04;;;;;;;5.90;5.20;;;11.20;99.90;;;;;;6209136;23;20410;-68
2021/11/26 01:26:34;;;;;;;5.77;5.17;;;11.20;99.90;;;;;;6203251;23;20451;-68
2021/11/26 01:29:05;;;;;;;5.87;5.20;;;11.20;99.90;;;;;;6208879;23;20419;-71
2021/11/26 01:31:37;;;;;;;6.03;5.43;;;11.20;99.90;;;;;;6205704;23;20779;-70
2021/11/26 01:34:09;;;;;;;6.70;6.00;;;11.20;99.90;;;;;;6197923;23;20532;-69
2021/11/26 01:36:53;;;;;;;5.37;4.87;;;11.30;99.90;;;;;;6206903;23;20420;-72
2021/11/26 01:39:28;;;;;;;6.40;5.17;;;11.30;99.90;;;;;;6205366;23;20483;-70
2021/11/26 01:41:59;;;;;;;7.10;5.67;;;11.30;99.90;;;;;;6209573;23;20411;-71
2021/11/26 01:44:30;;;;;;;6.30;5.70;;;11.20;99.90;;;;;;6205097;23;20449;-69
2021/11/26 01:47:01;;;;;;;6.83;6.23;;;11.30;99.90;;;;;;6210762;23;20412;-69
2021/11/26 01:49:32;;;;;;;6.47;5.87;;;11.30;99.90;;;;;;6203254;23;20766;-68
2021/11/26 01:52:03;;;;;;;7.10;6.50;;;11.30;99.90;;;;;;6209089;23;20452;-69
2021/11/26 01:54:35;;;;;;;7.03;6.33;;;11.30;99.90;;;;;;6201903;23;20415;-68
2021/11/26 01:57:07;;;;;;;8.07;6.43;;;11.30;99.90;;;;;;6206692;23;20424;-72
2021/11/26 01:59:45;;;;;;;8.30;7.37;;;11.40;99.90;;;;;;6211629;23;20401;-75
2021/11/26 02:02:19;;;;;;;7.57;6.97;;;11.50;99.90;;;;;;6205126;23;20417;-72
2021/11/26 02:04:50;;;;;;;8.30;7.60;;;11.60;99.90;;;;;;6206829;23;20718;-71
2021/11/26 02:07:21;;;;;;;8.27;7.57;;;11.60;99.90;;;;;;6208408;23;20427;-72
2021/11/26 02:09:57;;;;;;;8.90;8.20;;;11.60;99.90;;;;;;6202721;23;20550;-83
2021/11/26 02:12:28;;;;;;;8.90;8.00;;;11.60;99.90;;;;;;6208107;23;20546;-71
2021/11/26 02:14:59;;;;;;;7.70;7.03;;;11.50;99.90;;;;;;6207810;23;20421;-71
2021/11/26 02:17:30;;;;;;;9.40;8.50;;;11.50;99.90;;;;;;6207727;23;20421;-70
2021/11/26 02:20:03;;;;;;;10.73;9.73;;;11.60;99.90;;;;;;6205778;23;20487;-71
2021/11/26 02:22:33;;;;;;;8.27;7.57;;;11.50;99.90;;;;;;6208496;23;20431;-68
2021/11/26 02:25:06;;;;;;;8.10;7.30;;;11.50;99.90;;;;;;6204501;23;20732;-69
2021/11/26 02:27:38;;;;;;;10.30;9.30;;;11.60;99.90;;;;;;6206015;23;20417;-71
2021/11/26 02:30:20;;;;;;;10.30;9.30;;;11.60;99.90;;;;;;6204137;23;20413;-72
2021/11/26 02:32:55;;;;;;;8.63;7.83;;;11.50;99.90;;;;;;6208748;23;20444;-70
2021/11/26 02:35:29;;;;;;;9.50;8.60;;;11.50;99.90;;;;;;6207111;23;20437;-69
2021/11/26 02:38:01;;;;;;;17.03;8.87;;;11.40;99.90;;;;;;6209674;23;20412;-68
2021/11/26 02:40:34;;;;;;;10.33;9.13;;;11.20;99.90;;;;;;6201820;23;20787;-71
2021/11/26 02:43:09;;;;;;;8.20;7.40;;;11.10;99.90;;;;;;6207237;23;20441;-68
2021/11/26 02:45:42;;;;;;;8.23;7.43;;;11.00;99.90;;;;;;6209499;23;20413;-69
2021/11/26 02:48:15;;;;;;;8.47;7.10;;;11.00;99.90;;;;;;6205479;23;20463;-69
2021/11/26 02:50:49;;;;;;;8.57;7.73;;;11.10;99.90;;;;;;6209977;23;20885;-70
2021/11/26 02:53:20;;;;;;;8.87;8.07;;;11.20;99.90;;;;;;6207677;23;20407;-67
2021/11/26 02:55:51;;;;;;;13.33;11.63;;;11.20;99.90;;;;;;6206574;23;20415;-68
2021/11/26 02:58:22;;;;;;;12.40;11.10;;;11.20;99.90;;;;;;6201859;23;20416;-69
2021/11/26 03:00:56;;;;;;;11.03;10.00;;;11.30;99.90;;;;;;6208842;23;20408;-70
2021/11/26 03:03:27;;;;;;;8.50;7.80;;;11.40;99.90;;;;;;6209897;23;20682;-69
2021/11/26 03:06:01;;;;;;;9.43;8.47;;;11.40;99.90;;;;;;6206342;23;20488;-68
2021/11/26 03:08:33;;;;;;;6.57;6.00;;;11.50;99.90;;;;;;6210262;23;20408;-69
2021/11/26 03:11:05;;;;;;;8.70;7.87;;;11.60;99.90;;;;;;6203116;23;20822;-70
2021/11/26 03:13:37;;;;;;;8.67;6.00;;;11.70;99.90;;;;;;6203390;23;20436;-69
2021/11/26 03:16:07;;;;;;;6.33;5.73;;;11.80;99.90;;;;;;6203175;23;20435;-73
2021/11/26 03:18:41;;;;;;;6.13;5.53;;;11.90;99.90;;;;;;6204608;23;20413;-70
2021/11/26 03:30:01;;;;;;;11.00;5.90;;;12.10;99.90;;;;;;6142551;23;20483;-85
2021/11/26 03:41:28;;;;;;;4.87;3.70;;;12.30;99.90;;;;;;6170793;23;20400;-75
2021/11/26 03:52:11;;;;;;;3.70;3.40;;;12.50;99.00;;;;;;6188393;23;20551;-71
2021/11/26 03:54:46;;;;;;;3.17;2.87;;;12.60;99.10;;;;;;6205457;23;20412;-71
2021/11/26 03:57:58;;;;;;;2.90;2.70;;;12.70;98.50;;;;;;6209405;23;20487;-70
2021/11/26 04:00:30;;;;;;;3.70;2.97;;;12.80;99.20;;;;;;6208275;23;20404;-69
2021/11/26 04:03:01;;;;;;;5.13;3.90;;;12.80;98.30;;;;;;6211506;23;20401;-70
2021/11/26 04:05:32;;;;;;;7.13;4.23;;;12.80;97.90;;;;;;6209471;23;20737;-70
2021/11/26 04:08:03;;;;;;;3.13;2.87;;;12.90;97.90;;;;;;6203672;23;20760;-70
2021/11/26 04:10:36;;;;;;;4.63;4.23;;;12.90;97.20;;;;;;6210202;23;20404;-70
2021/11/26 04:13:13;;;;;;;3.97;3.67;;;12.90;97.60;;;;;;6205690;23;20523;-71
2021/11/26 04:15:46;;;;;;;4.30;3.17;;;12.90;96.50;;;;;;6209572;23;20415;-69
2021/11/26 04:18:17;;;;;;;3.73;3.43;;;13.00;96.30;;;;;;6207354;23;20416;-69
2021/11/26 04:20:48;;;;;;;3.43;3.03;;;12.90;95.60;;;;;;6209317;23;20420;-70
2021/11/26 04:23:19;;;;;;;3.40;3.10;;;12.90;95.90;;;;;;6211425;23;20408;-68
2021/11/26 04:25:50;;;;;;;3.00;2.70;;;13.00;95.90;;;;;;6207264;23;20417;-69
2021/11/26 04:28:21;;;;;;;3.30;2.30;;;13.00;94.20;;;;;;6204643;23;20447;-69
2021/11/26 04:30:54;;;;;;;6.20;3.03;;;13.10;94.60;;;;;;6207639;23;20412;-69
2021/11/26 04:33:25;;;;;;;2.77;2.57;;;13.10;94.30;;;;;;6208732;23;20524;-70
2021/11/26 04:35:55;;;;;;;3.63;2.97;;;13.10;95.00;;;;;;6207488;23;20409;-70
2021/11/26 04:38:26;;;;;;;2.40;2.20;;;13.10;94.80;;;;;;6210855;23;20934;-69
2021/11/26 04:40:58;;;;;;;4.00;2.77;;;13.00;94.70;;;;;;6209564;23;20408;-70
2021/11/26 04:43:29;;;;;;;2.67;2.47;;;13.00;94.70;;;;;;6209122;23;20433;-69
2021/11/26 04:46:01;;;;;;;3.70;3.37;;;12.90;97.00;;;;;;6209689;23;20488;-70
2021/11/26 04:48:32;;;;;;;2.40;2.20;;;12.80;99.30;;;;;;6203869;23;20431;-69
2021/11/26 04:51:03;;;;;;;2.70;2.50;;;12.70;98.70;;;;;;6210916;23;20984;-70
2021/11/26 04:53:34;;;;;;;3.50;2.20;;;12.70;98.70;;;;;;6206340;23;21001;-70
2021/11/26 04:56:05;;;;;;;3.53;3.10;;;12.60;97.20;;;;;;6209028;23;20433;-69
2021/11/26 04:58:38;;;;;;;2.30;2.10;;;12.50;99.90;;;;;;6206939;23;20499;-70
2021/11/26 05:01:11;;;;;;;3.20;3.00;;;12.40;99.90;;;;;;6209309;23;20421;-69
2021/11/26 05:03:42;;;;;;;3.43;2.87;;;12.30;99.90;;;;;;6210908;23;21034;-70
2021/11/26 05:06:13;;;;;;;2.90;2.60;;;12.20;99.90;;;;;;6206953;23;20428;-70
2021/11/26 05:08:44;;;;;;;4.40;2.97;;;12.20;99.90;;;;;;6207203;23;20440;-70
2021/11/26 05:11:15;;;;;;;3.03;2.80;;;12.20;99.80;;;;;;6211588;23;20413;-69
2021/11/26 05:13:47;;;;;;;3.00;2.80;;;12.30;99.90;;;;;;6209125;23;20447;-69
2021/11/26 05:16:19;;;;;;;2.77;2.57;;;12.20;99.90;;;;;;6209455;23;20409;-69
2021/11/26 05:18:50;;;;;;;2.53;2.10;;;12.30;99.80;;;;;;6208288;23;20409;-69
2021/11/26 05:21:21;;;;;;;2.67;2.47;;;12.30;98.80;;;;;;6206938;23;20413;-69
2021/11/26 05:23:54;;;;;;;4.73;2.80;;;12.30;99.90;;;;;;6210776;23;20405;-69
2021/11/26 05:26:24;;;;;;;2.80;2.60;;;12.30;99.90;;;;;;6209444;23;20409;-69
2021/11/26 05:28:55;;;;;;;2.37;2.17;;;12.10;99.90;;;;;;6205186;23;20413;-69
2021/11/26 05:31:29;;;;;;;2.23;2.03;;;12.00;99.90;;;;;;6211679;23;20413;-69
2021/11/26 05:34:03;;;;;;;5.17;2.47;;;11.90;99.90;;;;;;6208322;23;20444;-69
2021/11/26 05:36:34;;;;;;;2.60;2.40;;;11.70;99.90;;;;;;6209161;23;20829;-69
2021/11/26 05:39:07;;;;;;;3.10;2.80;;;11.70;99.90;;;;;;6210426;23;20409;-70
2021/11/26 05:41:38;;;;;;;2.30;2.10;;;11.80;99.90;;;;;;6205138;23;20461;-69
2021/11/26 05:44:09;;;;;;;3.00;2.80;;;11.60;99.90;;;;;;6208552;23;20435;-69
2021/11/26 05:46:41;;;;;;;3.17;2.90;;;11.50;99.90;;;;;;6211356;23;20409;-69
2021/11/26 05:49:12;;;;;;;4.67;4.27;;;11.30;99.90;;;;;;6208562;23;20409;-69
2021/11/26 05:51:43;;;;;;;7.23;6.17;;;11.20;99.90;;;;;;6209849;23;20409;-71
2021/11/26 05:54:16;;;;;;;6.07;5.33;;;11.20;99.90;;;;;;6209511;23;20440;-70
2021/11/26 05:56:47;;;;;;;6.17;5.57;;;11.00;99.90;;;;;;6209506;23;20436;-71
2021/11/26 05:59:18;;;;;;;7.70;5.97;;;10.80;99.90;;;;;;6207607;23;20409;-71
2021/11/26 06:01:52;;;;;;;4.73;3.77;;;10.60;99.90;;;;;;6203813;23;20413;-72
2021/11/26 06:04:22;;;;;;;6.97;4.20;;;10.50;99.90;;;;;;6210503;23;20916;-72
2021/11/26 06:06:54;;;;;;;6.07;4.30;;;10.40;99.90;;;;;;6208560;23;20186;-72
2021/11/26 06:09:24;;;;;;;5.25;4.75;;;10.30;99.90;;;;;;6214689;23;20477;-71
2021/11/26 06:11:55;;;;;;;5.72;5.15;;;10.10;99.90;;;;;;6209093;23;20181;-71
2021/11/26 06:14:26;;;;;;;5.22;4.70;;;10.00;99.90;;;;;;6206249;23;20929;-72
2021/11/26 06:16:59;;;;;;;6.88;4.20;;;10.10;99.90;;;;;;6208455;23;20288;-71
2021/11/26 06:19:30;;;;;;;5.13;4.60;;;10.00;99.90;;;;;;6207720;23;20207;-71
2021/11/26 06:22:05;;;;;;;5.83;4.20;;;9.90;99.90;;;;;;6209052;23;20500;-71
2021/11/26 06:24:36;;;;;;;6.40;5.70;;;9.80;99.90;;;;;;6205540;23;20405;-71
2021/11/26 06:27:08;;;;;;;5.88;5.20;;;9.70;99.90;;;;;;6207162;23;20717;-71
2021/11/26 06:29:39;;;;;;;7.70;6.27;;;9.70;99.90;;;;;;6205594;23;20286;-70
2021/11/26 06:32:12;;;;;;;5.75;5.25;;;9.70;99.90;;;;;;6204858;23;20409;-70
2021/11/26 06:34:43;;;;;;;6.80;6.05;;;9.60;99.90;;;;;;6210071;23;20205;-71
2021/11/26 06:37:14;;;;;;;6.00;5.50;;;9.60;99.90;;;;;;6209318;23;20182;-71
2021/11/26 06:39:45;;;;;;;5.53;5.03;;;9.60;99.90;;;;;;6208090;23;20421;-71
2021/11/26 06:42:16;;;;;;;6.00;5.25;;;9.70;99.90;;;;;;6211377;23;20409;-71
2021/11/26 06:44:47;;;;;;;5.00;4.53;;;9.60;99.90;;;;;;6208714;23;20202;-71
2021/11/26 06:47:20;;;;;;;4.32;3.92;;;9.60;99.90;;;;;;6206562;23;20186;-71
2021/11/26 06:49:54;;;;;;;5.28;4.72;;;9.60;99.90;;;;;;6207122;23;20585;-72
2021/11/26 06:52:25;;;;;;;4.85;4.45;;;9.50;99.90;;;;;;6208190;23;20182;-71
2021/11/26 06:54:56;;;;;;;4.10;3.70;;;9.50;99.90;;;;;;6207600;23;20204;-71
2021/11/26 06:57:27;;;;;;;8.82;5.20;;;9.40;99.90;;;;;;6206936;23;20193;-71
2021/11/26 06:59:58;;;;;;;4.90;4.40;;;9.30;99.90;;;;;;6207483;23;20186;-72
2021/11/26 07:02:30;;;;;;;4.45;4.05;;;9.30;99.90;;;;;;6210486;23;20221;-71
2021/11/26 07:05:04;;;;;;;5.85;3.78;;;9.20;99.90;;;;;;6208072;23;20177;-72
2021/11/26 07:07:35;;;;;;;3.85;3.47;;;9.20;99.90;;;;;;6210761;23;20182;-71
2021/11/26 07:10:08;;;;;;;5.40;4.13;;;9.20;99.90;;;;;;6208414;23;20194;-71
2021/11/26 07:12:39;;;;;;;4.50;4.10;;;9.20;99.90;;;;;;6210509;23;20188;-70
2021/11/26 07:15:12;;;;;;;4.10;3.70;;;9.20;99.90;;;;;;6210274;23;20636;-70
2021/11/26 07:17:44;;;;;;;3.95;3.38;;;9.20;99.90;;;;;;6208857;23;20182;-71
2021/11/26 07:20:16;;;;;;;4.20;3.70;;;9.20;99.90;;;;;;6206095;23;20193;-71
2021/11/26 07:22:47;;;;;;;4.78;3.70;;;9.20;99.90;;;;;;6207992;23;20266;-70
2021/11/26 07:25:18;;;;;;;3.47;3.17;;;9.30;99.90;;;;;;6208118;23;20178;-69
2021/11/26 07:27:49;;;;;;;4.13;3.00;;;9.20;99.90;;;;;;6208861;23;20234;-70
2021/11/26 07:30:19;;;;;;;3.15;2.88;;;9.20;99.90;;;;;;6206611;23;20285;-70
2021/11/26 07:32:52;;;;;;;3.53;2.70;;;9.20;99.90;;;;;;6209802;23;20239;-71
2021/11/26 07:35:23;;;;;;;4.05;2.80;;;9.30;99.90;;;;;;6208743;23;20546;-70
2021/11/26 07:37:54;;;;;;;3.03;2.75;;;9.30;99.90;;;;;;6210324;23;20182;-70
2021/11/26 07:40:25;;;;;;;4.78;3.03;;;9.30;99.90;;;;;;6208034;23;20185;-71
2021/11/26 07:42:56;;;;;;;3.45;2.70;;;9.20;99.90;;;;;;6210491;23;20192;-71
2021/11/26 07:45:27;;;;;;;5.60;3.00;;;9.20;99.90;;;;;;6207880;23;20185;-71
2021/11/26 07:47:59;;;;;;;4.50;3.70;;;9.10;99.90;;;;;;6205196;23;20182;-70
2021/11/26 07:50:30;;;;;;;4.22;3.58;;;9.10;99.90;;;;;;6207183;23;20185;-71
2021/11/26 07:53:01;;;;;;;3.55;2.40;;;9.10;99.90;;;;;;6208185;23;20272;-71
2021/11/26 07:55:32;;;;;;;5.22;2.08;;;9.10;99.90;;;;;;6204970;23;20198;-71
2021/11/26 07:58:05;;;;;;;2.65;2.22;;;9.10;99.90;;;;;;6205496;23;20186;-70
2021/11/26 08:00:36;;;;;;;2.50;2.05;;;9.10;99.90;;;;;;6193420;23;20185;-70
2021/11/26 08:03:15;;;;;;;2.47;1.77;;;9.10;99.90;;;;;;6209690;23;20244;-70
2021/11/26 08:06:05;;;;;;;2.13;1.95;;;9.10;99.90;;;;;;6207899;23;20210;-70
2021/11/26 08:08:37;;;;;;;2.70;1.90;;;9.10;99.90;;;;;;6208152;23;20192;-70
2021/11/26 08:11:07;;;;;;;2.30;2.05;;;9.10;99.90;;;;;;6205221;23;20193;-70
2021/11/26 08:13:39;;;;;;;2.00;1.85;;;9.00;99.90;;;;;;6212002;23;20336;-70
2021/11/26 08:16:11;;;;;;;3.17;2.00;;;9.00;99.90;;;;;;6209072;23;20182;-69
2021/11/26 08:18:44;;;;;;;2.60;2.17;;;9.00;99.90;;;;;;6206381;23;20673;-69
2021/11/26 08:21:14;;;;;;;2.20;2.00;;;9.00;99.90;;;;;;6211966;23;20683;-70
2021/11/26 08:23:45;;;;;;;2.50;2.30;;;8.90;99.90;;;;;;6208756;23;20677;-70
2021/11/26 08:26:16;;;;;;;2.80;1.77;;;8.90;99.90;;;;;;6210654;23;20658;-69
2021/11/26 08:28:47;;;;;;;3.28;2.15;;;8.90;99.90;;;;;;6207703;23;20182;-69
2021/11/26 08:31:18;;;;;;;2.15;1.60;;;8.80;99.90;;;;;;6209695;23;20258;-69
2021/11/26 08:33:51;;;;;;;3.63;2.80;;;8.70;99.90;;;;;;6211085;23;20189;-70
2021/11/26 08:36:23;;;;;;;6.28;2.33;;;8.80;99.90;;;;;;6212196;23;20188;-70
2021/11/26 08:38:54;;;;;;;3.13;2.25;;;8.80;99.90;;;;;;6209408;23;20208;-71
2021/11/26 08:41:26;;;;;;;2.45;2.25;;;8.80;99.90;;;;;;6211745;23;20190;-70
2021/11/26 08:43:57;;;;;;;2.65;1.92;;;8.80;99.90;;;;;;6207746;23;20212;-70
2021/11/26 08:46:28;;;;;;;2.75;1.95;;;8.70;99.90;;;;;;6212381;23;20283;-70
2021/11/26 08:49:01;;;;;;;5.47;2.42;;;8.70;99.90;;;;;;6206724;23;20188;-70
2021/11/26 08:51:35;;;;;;;2.30;2.10;;;8.70;99.90;;;;;;6210358;23;20277;-70
2021/11/26 08:54:06;;;;;;;4.13;2.97;;;8.70;99.90;;;;;;6202088;23;20521;-69
2021/11/26 08:56:39;;;;;;;2.75;2.22;;;8.60;99.90;;;;;;6207541;23;20192;-71
2021/11/26 08:59:09;;;;;;;3.72;2.17;;;8.60;99.90;;;;;;6207796;23;20185;-70
2021/11/26 09:01:43;;;;;;;2.63;2.38;;;8.70;99.90;;;;;;6209410;23;20186;-70
2021/11/26 09:04:16;;;;;;;5.50;2.50;;;8.60;99.90;;;;;;6209450;23;20186;-69
2021/11/26 09:06:46;;;;;;;2.50;2.00;;;8.50;99.90;;;;;;6212282;23;20181;-69
2021/11/26 09:09:17;;;;;;;2.97;2.78;;;8.50;99.90;;;;;;6209155;23;20209;-69
2021/11/26 09:11:48;;;;;;;3.28;2.85;;;8.50;99.90;;;;;;6209518;23;20192;-70
2021/11/26 09:14:20;;;;;;;4.05;2.92;;;8.60;99.90;;;;;;6212007;23;20281;-69
2021/11/26 09:16:51;;;;;;;3.67;2.92;;;8.60;99.90;;;;;;6205864;23;20197;-70
2021/11/26 09:19:23;;;;;;;3.50;2.90;;;8.60;99.90;;;;;;6204923;23;20189;-70
2021/11/26 09:21:54;;;;;;;2.78;2.58;;;8.70;99.90;;;;;;6209799;23;20186;-70
2021/11/26 09:24:25;;;;;;;2.50;2.30;;;8.60;99.90;;;;;;6209017;23;20184;-70
2021/11/26 09:26:56;;;;;;;2.95;2.60;;;8.60;99.90;;;;;;6207948;23;20181;-71
2021/11/26 09:29:27;;;;;;;4.28;2.75;;;8.70;99.90;;;;;;6209555;23;20202;-69
2021/11/26 09:31:58;;;;;;;2.13;1.92;;;8.70;99.90;;;;;;6209490;23;20270;-71
2021/11/26 09:34:30;;;;;;;2.90;2.15;;;8.60;99.90;;;;;;6210716;23;20552;-69
2021/11/26 09:37:01;;;;;;;2.30;2.10;;;8.60;99.90;;;;;;6206615;23;20199;-70
2021/11/26 09:39:32;;;;;;;3.85;2.30;;;8.60;99.90;;;;;;6210326;23;20642;-69
2021/11/26 09:42:08;;;;;;;5.88;2.80;;;8.60;99.90;;;;;;6208949;23;20351;-69
2021/11/26 09:44:41;;;;;;;2.70;2.50;;;8.60;99.90;;;;;;6211041;23;20202;-74
2021/11/26 09:47:12;;;;;;;4.43;2.45;;;8.60;99.90;;;;;;6208963;23;20186;-71
2021/11/26 09:49:45;;;;;;;5.53;2.88;;;8.60;99.90;;;;;;6209010;23;20523;-70
2021/11/26 09:52:16;;;;;;;3.35;3.15;;;8.60;99.90;;;;;;6211578;23;20258;-71
2021/11/26 09:54:49;;;;;;;3.15;2.65;;;8.60;99.90;;;;;;6208400;23;20216;-70
2021/11/26 09:57:20;;;;;;;3.70;2.83;;;8.50;99.90;;;;;;6207401;23;20192;-71
2021/11/26 09:59:50;;;;;;;3.80;2.67;;;8.60;99.90;;;;;;6207566;23;20196;-70
2021/11/26 10:02:23;;;;;;;2.30;2.10;;;8.60;99.90;;;;;;6208062;23;20182;-73
2021/11/26 10:05:04;;;;;;;2.67;2.47;;;8.60;99.90;;;;;;6206397;23;20178;-70
2021/11/26 10:07:46;;;;;;;2.85;2.55;;;8.60;99.90;;;;;;6211064;23;20207;-75
2021/11/26 10:10:22;;;;;;;2.00;1.90;;;8.60;99.90;;;;;;6210017;23;20256;-70
2021/11/26 10:13:03;;;;;;;3.20;2.30;;;8.60;99.90;;;;;;6213200;23;20182;-74
2021/11/26 10:15:38;;;;;;;2.58;2.38;;;8.60;99.90;;;;;;6213910;23;20206;-70
2021/11/26 10:18:12;;;;;;;3.95;2.40;;;8.60;99.90;;;;;;6210731;23;20209;-70
2021/11/26 10:21:02;;;;;;;2.33;2.08;;;8.60;99.90;;;;;;6213513;23;20240;-70
2021/11/26 10:23:36;;;;;;;2.67;2.45;;;8.70;99.90;;;;;;6209491;23;20182;-74
2021/11/26 10:26:19;;;;;;;2.50;2.30;;;8.60;99.90;;;;;;6206652;23;20518;-72
2021/11/26 10:28:52;;;;;;;2.50;1.83;;;8.60;99.90;;;;;;6204254;23;20186;-71
2021/11/26 10:31:26;;;;;;;2.42;2.22;;;8.60;99.90;;;;;;6202298;23;20214;-74
2021/11/26 10:34:13;;;;;;;2.42;2.22;;;8.70;99.90;;;;;;6207757;23;20243;-70
2021/11/26 10:36:48;;;;;;;2.17;1.92;;;8.70;99.90;;;;;;6206379;23;20201;-74
2021/11/26 10:39:21;;;;;;;2.88;2.35;;;8.70;99.90;;;;;;6207398;23;20192;-72
2021/11/26 10:41:55;;;;;;;2.65;2.28;;;8.70;99.90;;;;;;6209969;23;20527;-70
2021/11/26 10:44:38;;;;;;;2.67;2.40;;;8.70;99.90;;;;;;6207540;23;20666;-70
2021/11/26 10:47:22;;;;;;;2.75;2.30;;;8.70;99.90;;;;;;6212573;23;20615;-73
2021/11/26 10:56:40;;;;;;;3.05;2.17;;;8.70;99.90;;;;;;6203969;23;20556;-73
2021/11/26 10:58:41;;;;;;;2.42;2.10;;;8.70;99.90;;;;;;6207795;23;20193;-71
2021/11/26 11:01:13;;;;;;;2.60;2.08;;;8.70;99.90;;;;;;6206381;23;20570;-70
2021/11/26 11:03:45;;;;;;;3.97;1.80;;;8.70;99.90;;;;;;6207557;23;20263;-70
2021/11/26 11:06:21;;;;;;;2.92;2.63;;;8.70;99.90;;;;;;6208010;23;20189;-71
2021/11/26 11:09:05;;;;;;;2.13;1.92;;;8.70;99.90;;;;;;6209411;23;20189;-70
2021/11/26 11:11:36;;;;;;;1.85;1.60;;;8.70;99.90;;;;;;6207714;23;20281;-70
2021/11/26 11:14:16;;;;;;;2.03;1.85;;;8.70;99.90;;;;;;6206240;23;20186;-75
2021/11/26 11:16:50;;;;;;;1.77;1.67;;;8.70;99.90;;;;;;6213984;23;20244;-70
2021/11/26 11:19:21;;;;;;;1.90;1.60;;;8.60;99.90;;;;;;6210352;23;20260;-71
2021/11/26 11:21:54;;;;;;;2.17;1.50;;;8.60;99.90;;;;;;6210664;23;20196;-71
2021/11/26 11:24:27;;;;;;;2.85;2.30;;;8.70;99.90;;;;;;6207765;23;20264;-72
2021/11/26 11:26:58;;;;;;;2.47;2.28;;;8.70;99.90;;;;;;6206857;23;20177;-71
2021/11/26 11:29:30;;;;;;;1.67;1.58;;;8.70;99.90;;;;;;6203923;23;20686;-72
2021/11/26 11:32:01;;;;;;;3.10;2.25;;;8.80;99.90;;;;;;6206615;23;20260;-72
2021/11/26 11:34:33;;;;;;;2.53;2.13;;;8.70;99.90;;;;;;6211113;23;20345;-71
2021/11/26 11:37:07;;;;;;;2.85;1.90;;;8.80;99.90;;;;;;6207696;23;20208;-70
2021/11/26 11:39:49;;;;;;;1.50;1.40;;;8.70;99.90;;;;;;6206378;23;20182;-71
2021/11/26 11:42:28;;;;;;;1.60;1.50;;;8.80;99.90;;;;;;6207979;23;20182;-72
2021/11/26 11:45:02;;;;;;;2.03;1.85;;;8.80;99.90;;;;;;6207346;23;20217;-73
2021/11/26 11:47:34;;;;;;;1.40;1.30;;;8.70;99.90;;;;;;6207655;23;20641;-75
2021/11/26 11:50:08;;;;;;;1.75;1.65;;;8.80;99.90;;;;;;6205518;23;20198;-72
2021/11/26 11:52:44;;;;;;;1.45;1.35;;;8.80;99.90;;;;;;6208000;23;20181;-73
2021/11/26 11:55:28;;;;;;;1.42;1.33;;;8.80;99.90;;;;;;6205415;23;20192;-71
2021/11/26 11:58:12;;;;;;;1.77;1.30;;;8.80;99.90;;;;;;6205804;23;20181;-72
2021/11/26 12:00:45;;;;;;;3.25;1.65;;;8.90;99.90;;;;;;6208652;23;20185;-71
2021/11/26 12:03:18;;;;;;;1.95;1.33;;;8.80;99.90;;;;;;6210268;23;20182;-73
2021/11/26 12:05:59;;;;;;;1.77;1.67;;;8.80;99.90;;;;;;6212389;23;20185;-72
2021/11/26 12:08:30;;;;;;;1.40;1.30;;;8.90;99.90;;;;;;6209549;23;20181;-71
2021/11/26 12:11:03;;;;;;;1.45;1.10;;;8.90;99.90;;;;;;6205570;23;20188;-71
2021/11/26 12:13:35;;;;;;;1.10;1.02;;;8.90;99.90;;;;;;6211412;23;20193;-77
2021/11/26 12:16:12;;;;;;;3.28;1.35;;;8.90;99.90;;;;;;6210084;23;20237;-74
2021/11/26 12:22:27;;;;;;;2.05;1.20;;;9.00;99.90;;;;;;6189637;23;20276;-76
2021/11/26 12:24:59;;;;;;;1.10;1.10;;;8.90;99.90;;;;;;6210869;23;20188;-70
2021/11/26 12:27:38;;;;;;;1.73;1.40;;;8.90;99.90;;;;;;6209397;23;20436;-73
2021/11/26 12:30:19;;;;;;;1.50;1.40;;;9.00;99.90;;;;;;6207402;23;20182;-71
2021/11/26 12:32:50;;;;;;;1.20;1.13;;;9.00;99.90;;;;;;6207501;23;20193;-71
2021/11/26 12:35:21;;;;;;;1.13;1.02;;;9.00;99.90;;;;;;6208936;23;20196;-73
2021/11/26 12:37:59;;;;;;;1.17;1.15;;;9.00;99.90;;;;;;6211706;23;20205;-71
2021/11/26 12:40:30;;;;;;;1.10;1.00;;;9.10;99.90;;;;;;6208806;23;20188;-71
2021/11/26 12:43:05;;;;;;;1.40;1.30;;;9.10;99.90;;;;;;6208563;23;20319;-73
2021/11/26 12:45:37;;;;;;;1.52;1.27;;;9.10;99.90;;;;;;6207566;23;20185;-70
2021/11/26 12:48:10;;;;;;;1.30;1.23;;;9.10;99.90;;;;;;6206958;23;20188;-71
2021/11/26 12:53:28;;;;;;;3.63;1.25;;;9.20;99.90;;;;;;6209327;23;20182;-74
2021/11/26 12:56:01;;;;;;;4.90;1.50;;;9.20;99.90;;;;;;6209047;23;20182;-70
2021/11/26 12:58:36;;;;;;;1.95;1.30;;;9.20;99.90;;;;;;6208110;23;20650;-70
2021/11/26 13:01:09;;;;;;;1.65;1.33;;;9.20;99.90;;;;;;6209804;23;20211;-70
2021/11/26 13:03:45;;;;;;;2.17;1.15;;;9.10;99.90;;;;;;6207089;23;20190;-77
2021/11/26 13:06:21;;;;;;;1.65;1.52;;;9.20;99.90;;;;;;6209866;23;20351;-72
2021/11/26 13:09:00;;;;;;;1.27;1.02;;;9.20;99.90;;;;;;6208785;23;20650;-73
2021/11/26 13:11:49;;;;;;;1.30;1.20;;;9.30;99.90;;;;;;6209684;23;20244;-69
2021/11/26 13:14:54;;;;;;;1.23;1.10;;;9.20;99.90;;;;;;6212273;23;20186;-69
2021/11/26 13:17:33;;;;;;;1.00;1.00;;;9.30;99.90;;;;;;6207302;23;20242;-71
2021/11/26 13:20:12;;;;;;;1.40;1.30;;;9.30;99.90;;;;;;6215120;23;20182;-70
2021/11/26 13:22:46;;;;;;;1.77;1.60;;;9.20;99.90;;;;;;6212090;23;20201;-69
2021/11/26 13:25:19;;;;;;;1.20;1.10;;;9.30;99.90;;;;;;6211015;23;20277;-72
2021/11/26 13:27:53;;;;;;;0.90;0.90;;;9.30;99.90;;;;;;6210555;23;20178;-78
2021/11/26 13:30:34;;;;;;;2.75;1.20;;;9.30;99.90;;;;;;6207200;23;20416;-71
2021/11/26 13:33:11;;;;;;;1.20;1.10;;;9.40;99.90;;;;;;6208002;23;20181;-70
2021/11/26 13:35:44;;;;;;;1.25;1.15;;;9.40;99.90;;;;;;6207507;23;20186;-81
2021/11/26 13:38:20;;;;;;;0.88;0.85;;;9.40;99.90;;;;;;6211063;23;20233;-70
2021/11/26 13:40:54;;;;;;;1.55;0.98;;;9.40;99.90;;;;;;6207138;23;20185;-70
2021/11/26 13:43:31;;;;;;;1.10;1.10;;;9.40;99.90;;;;;;6208449;23;20577;-71
2021/11/26 13:46:09;;;;;;;1.45;1.25;;;9.50;99.90;;;;;;6210376;23;20182;-71
2021/11/26 13:48:43;;;;;;;1.20;1.05;;;9.50;99.90;;;;;;6205696;23;20527;-71
2021/11/26 13:51:15;;;;;;;2.97;1.20;;;9.50;99.90;;;;;;6211011;23;20600;-76
2021/11/26 13:53:48;;;;;;;1.60;1.13;;;9.40;99.90;;;;;;6206277;23;20268;-72
2021/11/26 13:56:20;;;;;;;1.33;1.23;;;9.40;99.90;;;;;;6208549;23;20188;-69
2021/11/26 13:58:55;;;;;;;1.33;1.20;;;9.40;99.90;;;;;;6206971;23;20196;-72
2021/11/26 14:01:30;;;;;;;1.20;1.10;;;9.50;99.90;;;;;;6207446;23;20187;-71
2021/11/26 14:04:03;;;;;;;1.23;1.13;;;9.50;99.90;;;;;;6210557;23;20450;-73
2021/11/26 14:06:58;;;;;;;1.52;0.80;;;9.50;99.90;;;;;;6208451;23;20182;-74
2021/11/26 14:09:34;;;;;;;2.97;1.40;;;9.60;99.90;;;;;;6207976;23;20188;-70
2021/11/26 14:12:14;;;;;;;1.20;1.20;;;9.60;99.90;;;;;;6205904;23;20626;-71
2021/11/26 14:14:46;;;;;;;1.88;1.30;;;9.60;99.90;;;;;;6208449;23;20188;-70